Flight Track Log - Related Links

Times and Time Zones

All times are in EDT time to prevent confusion due to time zone crossing. See the SKW5550 flight status page for this flight to view local times or setup timezone preferences in your user account.

Time Position Orientation Groundspeed Altitude Reporting Facility
EDT Latitude Longitude Course Direction KTS MPH feet Rate Location/Type
Fri 08:11:42 AM 44.5411 -108.9914 142° Southeast 208 239 6,200  Level Salt Lake Center
Fri 08:12:00 AM 43.7487 -108.4564 157° South  Level FlightAware Approximate
Fri 08:12:42 AM 44.6050 -108.9678 15° North 207 238 8,600  Level Salt Lake Center
Fri 08:13:00 AM 43.6517 -108.4008 157° South  Level FlightAware Approximate
Fri 08:13:42 AM 44.6628 -108.9406 19° North 234 269 10,600  Level Salt Lake Center
Fri 08:14:00 AM 43.5547 -108.3455 158° South  Level FlightAware Approximate
Fri 08:14:43 AM 44.6222 -108.8722 130° Southeast 263 303 12,200  Level Salt Lake Center
Fri 08:15:00 AM 43.4582 -108.2883 156° South  Level FlightAware Approximate
Fri 08:15:43 AM 44.5422 -108.8575 173° South 280 322 13,400  Level Salt Lake Center
Fri 08:16:00 AM 43.3748 -108.2011 142° Southeast  Level FlightAware Approximate
Fri 08:16:44 AM 44.4528 -108.8383 171° South 304 350 14,300  Level Salt Lake Center
Fri 08:17:44 AM 44.3572 -108.8136 170° South 333 383 15,500 1,339 Climbing Salt Lake Center
Fri 08:18:45 AM 44.2606 -108.7594 158° South 366 421 17,000 1,140 Climbing Salt Lake Center
Fri 08:19:45 AM 44.1636 -108.7031 157° South 375 432 17,800 1,091 Climbing Salt Lake Center
Fri 08:20:46 AM 44.0639 -108.6444 157° South 385 443 19,200 1,438 Climbing Salt Lake Center
Fri 08:21:46 AM 43.9631 -108.5864 157° South 392 451 20,700 1,289 Climbing Salt Lake Center
Fri 08:22:47 AM 43.8650 -108.5300 157° South 385 443 21,800 992 Climbing Salt Lake Center
Fri 08:23:47 AM 43.7650 -108.4733 158° South 388 447 22,700 793 Climbing Salt Lake Center
Fri 08:24:48 AM 43.6617 -108.4150 158° South 400 460 23,400 694 Climbing Salt Lake Center
Fri 08:25:48 AM 43.5567 -108.3567 158° South 406 467 24,100 694 Climbing Salt Lake Center
Fri 08:26:49 AM 43.4508 -108.2942 157° South 413 475 24,800 694 Climbing Salt Lake Center
Fri 08:27:49 AM 43.3567 -108.1875 141° Southeast 431 496 25,500 694 Climbing Salt Lake Center
Fri 08:28:50 AM 43.2608 -108.0864 142° Southeast 436 502 26,200 744 Climbing Salt Lake Center
Fri 08:29:50 AM 43.1664 -107.9844 142° Southeast 435 501 27,000 893 Climbing Salt Lake Center
Fri 08:30:51 AM 43.0714 -107.8850 143° Southeast 433 498 28,000 893 Climbing Salt Lake Center
Fri 08:31:51 AM 42.9786 -107.7939 144° Southeast 422 486 28,800 744 Climbing Salt Lake Center
Fri 08:32:52 AM 42.8736 -107.6792 141° Southeast 424 488 29,500 694 Climbing Salt Lake Center
Fri 08:33:52 AM 42.7822 -107.5825 142° Southeast 430 495 30,200 744 Climbing Salt Lake Center
Fri 08:34:53 AM 42.6769 -107.4747 143° Southeast 426 490 31,000 397 Climbing Salt Lake Center
Fri 08:35:53 AM 42.5864 -107.3817 143° Southeast 426 490 31,000  Level Salt Lake Center
Fri 08:36:54 AM 42.4897 -107.2839 143° Southeast 445 512 31,000  Level Salt Lake Center
Fri 08:37:55 AM 42.3928 -107.1844 143° Southeast 453 521 31,000  Level Salt Lake Center
Fri 08:38:55 AM 42.2775 -107.0669 143° Southeast 463 533 31,000  Level Salt Lake Center
Fri 08:39:56 AM 42.1781 -106.9664 143° Southeast 465 535 31,000  Level Salt Lake Center
Fri 08:40:56 AM 42.0794 -106.8658 143° Southeast 464 534 31,000  Level Salt Lake Center
Fri 08:41:57 AM 41.9628 -106.7489 143° Southeast 467 537 31,000  Level Salt Lake Center
Fri 08:42:58 AM 41.8658 -106.6506 143° Southeast 469 540 31,000  Level Salt Lake Center
Fri 08:43:58 AM 41.7500 -106.5353 143° Southeast 466 536 31,000  Level Salt Lake Center
Fri 08:44:59 AM 41.6483 -106.4356 144° Southeast 471 542 31,000  Level Salt Lake Center
Fri 08:45:59 AM 41.5492 -106.3372 143° Southeast 453 521 31,000  Level Salt Lake Center
Fri 08:47:21 AM 41.4097 -106.2253 149° Southeast 427 491 31,000  Level Denver Center
Fri 08:48:22 AM 41.3053 -106.1794 162° South 416 479 31,000  Level Denver Center
Fri 08:49:23 AM 41.1986 -106.1350 163° South 419 482 31,000  Level Denver Center
Fri 08:50:24 AM 41.0750 -106.0761 160° South 422 486 31,000  Level Denver Center
Fri 08:51:25 AM 40.9669 -106.0119 156° South 430 495 31,000 -689 Level Denver Center
Fri 08:52:26 AM 40.8694 -105.9189 144° Southeast 448 516 29,600 -1,820 Descending Denver Center
Fri 08:53:27 AM 40.7947 -105.7844 126° Southeast 457 526 27,300 -2,262 Descending Denver Center
Fri 08:54:28 AM 40.7256 -105.6581 126° Southeast 434 499 25,000 -2,244 Descending Denver Center
Fri 08:55:30 AM 40.6581 -105.5397 127° Southeast 410 472 22,700 -2,244 Descending Denver Center
Fri 08:56:31 AM 40.5944 -105.4244 126° Southeast 393 452 20,400 -2,016 Descending Denver Center
Fri 08:57:32 AM 40.5353 -105.3139 125° Southeast 375 432 18,600 -1,623 Descending Denver Center
Fri 08:58:33 AM 40.4789 -105.1842 120° Southeast 345 397 17,100 -1,328 Descending Denver Center
Fri 08:59:34 AM 40.4461 -105.0731 111° Southeast 331 381 15,900 -1,033 Descending Denver Center
Fri 09:00:35 AM 40.4153 -104.9675 111° Southeast 314 361 15,000 -787 Descending Denver Center
Fri 09:01:36 AM 40.3867 -104.8653 110° East 300 345 14,300 -934 Descending Denver Center
Fri 09:02:37 AM 40.3581 -104.7583 109° East 308 354 13,100 -639 Descending Denver Center
Fri 09:03:38 AM 40.2867 -104.6914 144° Southeast 299 344 13,000 -590 Descending Denver Center
Fri 09:04:39 AM 40.2072 -104.6817 175° South 282 325 11,900 -1,475 Descending Denver Center
Fri 09:05:40 AM 40.1275 -104.6833 181° South 283 326 10,000 -1,131 Descending Denver Center
Fri 09:06:41 AM 40.0558 -104.6850 181° South 246 283 9,600 -1,279 Descending Denver Center
Fri 09:07:42 AM 39.9986 -104.6847 180° South 210 242 7,400 -1,574 Descending Denver Center
Fri 09:08:43 AM 39.9475 -104.6861 181° South 168 193 6,400 -885 Descending Denver Center
Fri 09:09:44 AM 39.9042 -104.6867 181° South 157 181 5,600 -492 Descending Denver Center
Fri 09:10:45 AM 39.8794 -104.6867 180° South 120 138 5,400 -197 Descending Denver Center

Login

Don't have an account? Register now (free) for customized features, flight alerts, and more!